• Join FlightAware (Why Join?)
  • Login
  • US Flag 
03:01PM EDT


 

Airport Tracker/Info


-or-


 

Live Flight TrackerFlight Track Log ✈ PDT4226 ✈ 22-Oct-2013 ✈ KBGM - KPHL

Flight Track Log - Related Links

Times and Time Zones

All times are in EDT time to prevent confusion due to time zone crossing. See the PDT4226 flight status page for this flight to view local times or setup timezone preferences in your user account.

Time Position Orientation Groundspeed Altitude Reporting Facility
EDT Latitude Longitude Course Direction KTS MPH feet Rate Location/Type
01:52PM 41.9713 -75.9021 180° South  Level Estimated
01:53PM 41.9106 -75.9107 186° South  Level FlightAware Approximate
01:54PM 41.8515 -75.8906 154° Southeast  Level Estimated
01:55PM 41.7923 -75.8706 160° South  Level Estimated
01:56PM 41.7332 -75.8506 159° South  Level Estimated
01:57PM 41.6730 -75.8375 171° South  Level FlightAware Approximate
01:58PM 41.6138 -75.8174 153° Southeast  Level Estimated
01:59PM 41.5547 -75.7973 161° South  Level Estimated
02:00PM 41.4963 -75.7741 163° South  Level FlightAware Approximate
02:01PM 41.4378 -75.7509 163° South  Level FlightAware Approximate
02:02PM 41.3786 -75.7312 162° South  Level Estimated
02:03PM 41.3206 -75.7058 162° South  Level FlightAware Approximate
02:04PM 41.2626 -75.6806 162° South  Level FlightAware Approximate
02:05PM 41.2047 -75.6553 162° South  Level FlightAware Approximate
02:06PM 41.1467 -75.6302 162° South  Level FlightAware Approximate
02:07PM 41.0873 -75.6117 159° South  Level Estimated
02:08PM 41.0279 -75.5932 163° South  Level Estimated
02:09PM 40.9703 -75.5666 161° South  Level FlightAware Approximate
02:10PM 40.9127 -75.5400 161° South  Level FlightAware Approximate
02:11PM 40.8551 -75.5135 161° South  Level FlightAware Approximate
02:12PM 40.7954 -75.4967 190° South  Level Estimated
02:13PM 40.7344 -75.4974 180° South  Level FlightAware Approximate
02:14PM 40.6734 -75.4981 180° South  Level FlightAware Approximate
02:15PM 40.6142 -75.4789 187° South  Level Estimated
02:15PM 40.7000 -75.4500 143° Southeast 237 273 6,200  Level Philadelphia TRACON
02:16PM 40.5537 -75.4896 188° South  Level FlightAware Approximate
02:16PM 40.6500 -75.4667 194° South 217 250 5,900  Level Philadelphia TRACON
02:17PM 40.4950 -75.4679 190° South  Level Estimated
02:17PM 40.6000 -75.4833 194° South 222 255 5,600  Level Philadelphia TRACON
02:18PM 40.4359 -75.4878 194° South  Level FlightAware Approximate
02:18PM 40.5333 -75.4500 159° South 263 303 5,000  Level Philadelphia TRACON
02:19PM 40.3768 -75.5076 194° South  Level FlightAware Approximate
02:19PM 40.4833 -75.4000 143° Southeast 247 284 5,000  Level Philadelphia TRACON
02:20PM 40.3202 -75.4775 143° Southeast  Level Estimated
02:20PM 40.4167 -75.3667 159° South 238 274 5,000  Level Philadelphia TRACON
02:21PM 40.2637 -75.4474 143° Southeast  Level Estimated
02:21PM 40.3500 -75.3167 150° Southeast 237 273 5,000  Level Philadelphia TRACON
02:22PM 40.2072 -75.4174 143° Southeast  Level Estimated
02:22PM 40.3000 -75.3000 166° South 234 269 5,000  Level Philadelphia TRACON
02:23PM 40.2167 -75.2667 163° South 231 266 4,700 -480 Descending Philadelphia TRACON
02:24PM 40.1667 -75.2500 166° South 249 287 4,100 -420 Descending Philadelphia TRACON
02:25PM 40.1000 -75.2167 159° South 245 282 4,000 -120 Descending Philadelphia TRACON
02:26PM 40.0333 -75.2000 169° South 234 269 3,900  Descending Philadelphia TRACON
02:27PM 39.9667 -75.1833 169° South 216 249 4,000  Climbing Philadelphia TRACON
02:28PM 39.9167 -75.1500 153° Southeast 212 244 4,000 -480 Level Philadelphia TRACON
02:29PM 39.8500 -75.1333 169° South 214 246 3,100 -660 Descending Philadelphia TRACON
02:30PM 39.8167 -75.1167 159° South 194 223 2,800 -600 Descending Philadelphia TRACON
02:31PM 39.7500 -75.1167 180° South 206 237 2,000 -480 Descending Philadelphia TRACON
02:32PM 39.7333 -75.1667 247° West 168 193 1,900 -120 Descending Philadelphia TRACON
02:33PM 39.7833 -75.1833 346° North 170 196 1,800 -420 Descending Philadelphia TRACON
02:34PM 39.8167 -75.2000 339° North 138 159 1,100 -720 Descending Philadelphia TRACON
02:35PM 39.8500 -75.2167 339° North 106 122 400 -720 Descending Philadelphia TRACON